createdAt,value
2022-07-26T00:02:28.579Z,32.24
2022-07-26T00:09:16.986Z,32.27
2022-07-26T00:16:03.829Z,32.30
2022-07-26T00:22:49.551Z,32.26
2022-07-26T00:29:37.890Z,32.48
2022-07-26T00:36:23.517Z,32.74
2022-07-26T00:43:09.089Z,32.35
2022-07-26T00:49:57.245Z,32.78
2022-07-26T00:56:43.503Z,32.86
2022-07-26T01:03:36.495Z,33.18
2022-07-26T01:10:28.173Z,33.48
2022-07-26T01:17:14.116Z,33.43
2022-07-26T01:24:02.610Z,33.84
2022-07-26T01:30:48.098Z,33.63
2022-07-26T01:37:33.721Z,33.56
2022-07-26T01:44:23.009Z,33.77
2022-07-26T01:51:08.864Z,34.16
2022-07-26T01:57:54.996Z,34.23
2022-07-26T02:04:55.569Z,33.91
2022-07-26T02:11:41.037Z,34.15
2022-07-26T02:18:27.071Z,34.39
2022-07-26T02:25:15.301Z,34.41
2022-07-26T02:32:01.919Z,34.73
2022-07-26T02:38:47.765Z,34.84
2022-07-26T03:06:18.092Z,35.16
2022-07-26T03:13:03.716Z,35.48
2022-07-26T03:19:49.237Z,35.79
2022-07-26T03:26:37.365Z,35.58
2022-07-26T03:33:23.314Z,35.57
2022-07-26T03:40:11.450Z,36.34
2022-07-26T03:47:00.014Z,35.80
2022-07-26T03:53:46.229Z,35.94
2022-07-26T04:00:31.936Z,36.33
2022-07-26T04:07:20.163Z,37.07
2022-07-26T04:14:07.874Z,36.52
2022-07-26T04:20:53.672Z,36.64
2022-07-26T04:27:41.822Z,36.20
2022-07-26T04:34:27.277Z,36.75
2022-07-26T04:41:12.744Z,35.99
2022-07-26T04:48:01.093Z,36.11
2022-07-26T04:54:46.682Z,35.81
2022-07-26T05:01:32.319Z,36.01
2022-07-26T05:08:20.627Z,35.96
2022-07-26T05:15:06.919Z,36.51
2022-07-26T05:22:00.081Z,36.48
2022-07-26T05:28:51.741Z,36.47
2022-07-26T05:35:37.350Z,36.39
2022-07-26T05:42:22.704Z,35.56
2022-07-26T05:49:11.695Z,35.79
2022-07-26T05:55:57.172Z,35.52
2022-07-26T06:02:42.889Z,36.06
2022-07-26T06:09:31.365Z,35.74
2022-07-26T06:16:17.669Z,35.60
2022-07-26T06:23:03.824Z,35.41
2022-07-26T06:29:52.729Z,35.18
2022-07-26T06:36:38.756Z,35.15
2022-07-26T06:43:24.953Z,35.22
2022-07-26T06:50:14.465Z,35.56
2022-07-26T06:57:02.253Z,35.36
2022-07-26T07:03:47.999Z,35.31
2022-07-26T07:10:36.202Z,34.83
2022-07-26T07:17:23.715Z,34.80
2022-07-26T07:24:10.409Z,34.85
2022-07-26T07:30:59.001Z,34.70
2022-07-26T07:37:53.854Z,34.26
2022-07-26T07:44:41.649Z,33.77
2022-07-26T07:51:30.027Z,34.01
2022-07-26T07:58:15.764Z,33.71
2022-07-26T08:05:11.350Z,33.76
2022-07-26T08:12:02.513Z,33.34
2022-07-26T08:18:56.911Z,33.44
2022-07-26T08:25:57.822Z,33.59
2022-07-26T08:32:47.480Z,33.82
2022-07-26T08:39:33.138Z,33.52
2022-07-26T08:46:24.333Z,33.67
2022-07-26T08:53:13.934Z,33.15
2022-07-26T09:00:18.917Z,32.87
2022-07-26T09:07:08.767Z,32.92
2022-07-26T09:14:00.693Z,32.82
2022-07-26T09:20:50.711Z,32.79
2022-07-26T09:27:40.008Z,32.39
2022-07-26T09:34:30.523Z,32.01
2022-07-26T09:41:23.529Z,32.06
2022-07-26T09:48:09.775Z,32.08
2022-07-26T09:54:58.402Z,31.80
2022-07-26T10:01:44.872Z,32.00
2022-07-26T10:08:31.510Z,31.53
2022-07-26T10:15:46.802Z,31.52
2022-07-26T10:22:34.694Z,31.50
2022-07-26T10:29:30.038Z,31.22
2022-07-26T10:36:31.349Z,30.95
2022-07-26T10:50:36.315Z,29.93
2022-07-26T10:57:24.402Z,29.24
2022-07-26T11:04:21.110Z,29.40
2022-07-26T11:11:06.974Z,29.13
2022-07-26T11:17:55.043Z,29.13
2022-07-26T11:24:43.653Z,29.14
2022-07-26T11:31:50.627Z,28.67
2022-07-26T11:38:57.667Z,28.82
2022-07-26T11:45:55.661Z,28.69
2022-07-26T11:52:41.469Z,28.41
2022-07-26T11:59:33.882Z,28.63
2022-07-26T12:06:22.494Z,28.49
2022-07-26T12:13:16.576Z,28.33
2022-07-26T12:20:15.185Z,28.08
2022-07-26T12:27:09.707Z,28.50
2022-07-26T12:33:55.414Z,28.12
2022-07-26T12:40:47.496Z,27.77
2022-07-26T12:47:33.534Z,27.40
2022-07-26T12:54:19.286Z,27.57
2022-07-26T13:01:07.557Z,27.08
2022-07-26T13:07:54.281Z,27.19
2022-07-26T13:14:41.089Z,27.21
2022-07-26T13:21:33.203Z,26.63
2022-07-26T13:28:19.505Z,26.37
2022-07-26T13:35:05.569Z,26.23
2022-07-26T13:41:53.878Z,26.52
2022-07-26T13:48:48.074Z,26.09
2022-07-26T13:55:44.942Z,26.33
2022-07-26T14:02:33.682Z,26.56
2022-07-26T14:09:19.716Z,26.75
2022-07-26T14:16:05.318Z,26.77
2022-07-26T14:22:56.517Z,27.25
2022-07-26T14:29:42.011Z,27.00
2022-07-26T14:36:27.529Z,26.88
2022-07-26T14:43:15.802Z,26.91
2022-07-26T14:50:06.573Z,27.12
2022-07-26T14:56:52.568Z,27.39
2022-07-26T15:03:40.821Z,27.00
2022-07-26T15:10:32.117Z,26.72
2022-07-26T15:17:17.677Z,26.97
2022-07-26T15:24:05.943Z,27.32
2022-07-26T15:30:51.554Z,26.92
2022-07-26T15:37:38.128Z,27.04
2022-07-26T15:44:26.281Z,26.54
2022-07-26T15:51:11.878Z,27.15
2022-07-26T15:57:57.542Z,26.48
2022-07-26T16:04:45.885Z,26.72
2022-07-26T16:11:33.713Z,26.67
2022-07-26T16:18:19.263Z,26.07
2022-07-26T16:25:08.656Z,26.41
2022-07-26T16:31:56.287Z,26.01
2022-07-26T16:38:41.814Z,26.08
2022-07-26T16:45:30.184Z,26.35
2022-07-26T16:52:15.859Z,26.18
2022-07-26T16:59:01.814Z,26.41
2022-07-26T17:05:50.072Z,26.41
2022-07-26T17:12:36.270Z,26.39
2022-07-26T17:19:22.021Z,26.14
2022-07-26T17:26:10.831Z,26.13
2022-07-26T17:32:56.346Z,26.15
2022-07-26T17:39:51.950Z,26.14
2022-07-26T17:46:40.872Z,25.90
2022-07-26T17:53:34.166Z,25.69
2022-07-26T18:00:22.788Z,25.85
2022-07-26T18:07:11.005Z,26.06
2022-07-26T18:13:56.513Z,26.26
2022-07-26T18:20:42.043Z,26.28
2022-07-26T18:27:30.649Z,26.60
2022-07-26T18:34:16.209Z,26.56
2022-07-26T18:41:02.212Z,27.20
2022-07-26T18:47:51.195Z,27.23
2022-07-26T18:54:40.117Z,27.60
2022-07-26T19:01:25.854Z,27.63
2022-07-26T19:08:14.226Z,27.62
2022-07-26T19:15:00.166Z,27.66
2022-07-26T19:21:49.256Z,28.18
2022-07-26T19:28:37.492Z,27.88
2022-07-26T19:35:23.301Z,28.54
2022-07-26T19:42:09.959Z,28.39
2022-07-26T19:48:58.594Z,28.37
2022-07-26T19:55:44.162Z,28.40
2022-07-26T20:02:29.997Z,28.43
2022-07-26T20:09:18.382Z,28.53
2022-07-26T20:16:03.941Z,28.54
2022-07-26T20:22:49.694Z,28.60
2022-07-26T20:29:38.087Z,28.70
2022-07-26T20:36:23.596Z,28.59
2022-07-26T20:43:09.077Z,28.93
2022-07-26T20:50:02.646Z,28.79
2022-07-26T20:56:48.771Z,28.73
2022-07-26T21:03:34.815Z,28.90
2022-07-26T21:10:23.910Z,28.82
2022-07-26T21:17:12.052Z,29.39
2022-07-26T21:23:57.934Z,29.59
2022-07-26T21:30:46.405Z,29.28
2022-07-26T21:37:31.962Z,29.64
2022-07-26T21:44:17.501Z,29.61
2022-07-26T21:51:05.707Z,30.27
2022-07-26T21:57:51.647Z,30.16
2022-07-26T22:04:37.191Z,30.25
2022-07-26T22:11:25.686Z,30.71
2022-07-26T22:18:11.634Z,30.73
2022-07-26T22:24:57.080Z,31.13
2022-07-26T22:31:45.275Z,31.23
2022-07-26T22:38:31.501Z,31.46
2022-07-26T22:45:17.612Z,31.79
2022-07-26T22:52:05.722Z,31.66
2022-07-26T22:58:51.225Z,32.10
2022-07-26T23:05:46.628Z,31.50
2022-07-26T23:12:36.104Z,32.52
2022-07-26T23:19:21.662Z,32.46
2022-07-26T23:26:07.172Z,33.39
2022-07-26T23:32:55.010Z,32.55
2022-07-26T23:39:40.572Z,33.17
2022-07-26T23:46:26.517Z,32.73
2022-07-26T23:53:14.665Z,33.82
